Hickory, Kentucky
Current Conditions -  °F | °C
As of 6:55 AM on Monday 26 Jan 2015 (Local Time) from KM25 Reporting Station
Overcast Overcast  
Wind Chill: 23°   Ceiling: 1700
Heat Index: 32°   Visibility: 10mi
Dew Point: 27°   Wind: 13mph
Humidity: 80%   Direction: 330°NNW
Pressure: 30.03"   Gusts: 17mph
Location:  36.82°N, 88.65°W
Report Text: KM25 261255Z AUTO 33011G15KT 10SM OVC017 00/M03 A3003 RMK AO2
Loading
Personal Weather Stations






























Interactive Weather Map New forecast layout! Learn more

10-Day Weather Forecast

Advertisements
Track Severe Weather on mobile